North Bay Village, Florida
Current Conditions -  °F | °C
As of 12:53 AM on Saturday 25 Oct 2014 (Local Time) from KMIA Reporting Station
Scattered Clouds Scattered Clouds  
Wind Chill: 73°   Ceiling: Unl
Heat Index: 73°   Visibility: 10mi
Dew Point: 66°   Wind: 7mph
Humidity: 79%   Direction: 330°NNW
Pressure: 29.87"   Gusts: NA
Location:  25.8619°N, 80.1259°W
Report Text: KMIA 250453Z 33006KT 10SM SCT030 23/19 A2987 RMK AO2 SLP114 T02280189 402610228
Loading
Personal Weather Stations






























Interactive Weather Map
Tropical Storm Tracking
New forecast layout! Learn more

10-Day Weather Forecast

Advertisements
Track Severe Weather on mobile